Time;durP1;ratioP1;P1;durP2;ratioP2;P2;SDS_P1;SDS_P2;PMS_P1;PMS_P2;Temp;Humidity;BMP_temperature;BMP_pressure;BME280_temperature;BME280_humidity;BME280_pressure;Samples;Min_cycle;Max_cycle;Signal;HPM_P1;HPM_P2
2022/06/15 00:00:06;;;;;;;6.10;3.20;;;;;;;;;;6217314;23;20057;-79
2022/06/15 00:02:32;;;;;;;6.45;3.13;;;;;;;;;;6244276;23;20019;-79
2022/06/15 00:04:57;;;;;;;7.80;3.50;;;;;;;;;;6217646;23;20004;-79
2022/06/15 00:07:23;;;;;;;14.45;3.45;;;;;;;;;;6243455;23;20039;-80
2022/06/15 00:09:48;;;;;;;8.88;3.20;;;;;;;;;;6230731;23;20027;-81
2022/06/15 00:12:14;;;;;;;5.00;3.28;;;;;;;;;;6256877;23;20443;-79
2022/06/15 00:14:39;;;;;;;9.38;3.33;;;;;;;;;;6194841;23;20004;-79
2022/06/15 00:17:05;;;;;;;4.47;3.05;;;;;;;;;;6246296;23;20020;-80
2022/06/15 00:19:30;;;;;;;7.18;2.72;;;;;;;;;;6218929;23;20000;-79
2022/06/15 00:21:56;;;;;;;7.30;3.50;;;;;;;;;;6219456;23;20019;-79
2022/06/15 00:24:22;;;;;;;5.00;3.40;;;;;;;;;;6246449;23;20076;-79
2022/06/15 00:26:47;;;;;;;5.75;3.08;;;;;;;;;;6246233;23;20533;-80
2022/06/15 00:29:14;;;;;;;5.50;3.30;;;;;;;;;;6246135;23;20000;-79
2022/06/15 00:31:39;;;;;;;7.70;3.55;;;;;;;;;;6261149;22;20008;-78
2022/06/15 00:34:05;;;;;;;7.68;3.58;;;;;;;;;;6248476;23;20011;-79
2022/06/15 00:36:30;;;;;;;5.68;3.00;;;;;;;;;;6221873;23;20000;-81
2022/06/15 00:38:57;;;;;;;6.85;3.47;;;;;;;;;;6244569;23;20431;-79
2022/06/15 00:41:24;;;;;;;6.10;3.40;;;;;;;;;;6244429;23;20008;-79
2022/06/15 00:43:57;;;;;;;6.50;3.50;;;;;;;;;;6245457;23;20320;-80
2022/06/15 00:46:42;;;;;;;8.38;3.53;;;;;;;;;;6246104;23;20363;-80
2022/06/15 00:49:21;;;;;;;5.18;3.38;;;;;;;;;;6218586;23;20000;-81
2022/06/15 00:51:49;;;;;;;5.53;3.20;;;;;;;;;;6235673;23;20007;-79
2022/06/15 00:54:15;;;;;;;15.65;3.65;;;;;;;;;;6219985;23;20362;-79
2022/06/15 00:56:40;;;;;;;4.80;3.15;;;;;;;;;;6249061;23;20004;-79
2022/06/15 00:59:16;;;;;;;8.70;3.28;;;;;;;;;;6193376;23;20036;-79
2022/06/15 01:01:41;;;;;;;10.60;3.63;;;;;;;;;;6219529;23;20430;-79
2022/06/15 01:04:09;;;;;;;7.68;3.30;;;;;;;;;;6245616;23;20008;-79
2022/06/15 01:06:48;;;;;;;6.45;3.10;;;;;;;;;;6245797;23;20000;-79
2022/06/15 01:09:24;;;;;;;5.53;2.95;;;;;;;;;;6245934;23;20075;-81
2022/06/15 01:12:28;;;;;;;8.55;3.30;;;;;;;;;;6230271;23;20070;-81
2022/06/15 01:15:34;;;;;;;8.43;2.78;;;;;;;;;;6094892;23;20010;-81
2022/06/15 01:18:08;;;;;;;8.00;3.20;;;;;;;;;;6089953;23;20033;-79
2022/06/15 01:20:43;;;;;;;8.10;3.17;;;;;;;;;;6194820;23;20009;-81
2022/06/15 01:23:17;;;;;;;11.38;2.90;;;;;;;;;;6189462;23;20012;-81
2022/06/15 01:26:11;;;;;;;5.45;3.05;;;;;;;;;;6215585;23;20012;-79
2022/06/15 01:28:51;;;;;;;5.50;3.30;;;;;;;;;;6215415;23;19996;-79
2022/06/15 01:31:41;;;;;;;4.15;3.08;;;;;;;;;;6190776;23;20004;-79
2022/06/15 01:34:06;;;;;;;13.00;3.85;;;;;;;;;;6200046;23;20011;-80
2022/06/15 01:36:42;;;;;;;5.80;2.72;;;;;;;;;;6215213;23;20000;-79
2022/06/15 01:39:18;;;;;;;5.55;2.97;;;;;;;;;;6190359;23;20339;-80
2022/06/15 01:41:49;;;;;;;7.20;3.00;;;;;;;;;;6189576;23;20005;-77
2022/06/15 01:44:24;;;;;;;5.68;3.03;;;;;;;;;;6190904;23;20081;-78
2022/06/15 01:46:50;;;;;;;9.30;3.55;;;;;;;;;;6165642;23;20012;-79
2022/06/15 01:49:27;;;;;;;9.18;3.03;;;;;;;;;;6163962;23;20001;-78
2022/06/15 01:51:53;;;;;;;7.05;2.92;;;;;;;;;;6192293;23;20009;-78
2022/06/15 01:54:58;;;;;;;8.15;3.15;;;;;;;;;;6201870;23;20063;-80
2022/06/15 01:57:23;;;;;;;6.38;3.10;;;;;;;;;;6189444;23;20099;-80
2022/06/15 02:00:06;;;;;;;17.33;3.20;;;;;;;;;;6189094;23;20301;-80
2022/06/15 02:02:32;;;;;;;13.15;3.45;;;;;;;;;;6163564;23;20008;-80
2022/06/15 02:05:06;;;;;;;11.77;3.85;;;;;;;;;;6216714;23;20419;-79
2022/06/15 02:07:34;;;;;;;5.32;3.13;;;;;;;;;;6216376;23;20004;-79
2022/06/15 02:10:23;;;;;;;8.20;3.30;;;;;;;;;;6214636;23;20043;-79
2022/06/15 02:12:54;;;;;;;6.35;3.25;;;;;;;;;;6200516;23;19992;-80
2022/06/15 02:15:20;;;;;;;6.22;3.28;;;;;;;;;;6192922;23;20011;-79
2022/06/15 02:17:46;;;;;;;8.13;3.28;;;;;;;;;;6188210;23;21014;-81
2022/06/15 02:20:15;;;;;;;4.13;3.63;;;;;;;;;;6163904;23;20094;-80
2022/06/15 02:22:42;;;;;;;4.90;3.40;;;;;;;;;;6163160;23;20019;-79
2022/06/15 02:25:18;;;;;;;5.57;3.10;;;;;;;;;;6163543;23;20079;-80
2022/06/15 02:27:43;;;;;;;9.77;3.50;;;;;;;;;;6164079;23;20007;-79
2022/06/15 02:30:14;;;;;;;8.82;4.05;;;;;;;;;;6188196;23;20000;-79
2022/06/15 02:32:42;;;;;;;8.30;3.35;;;;;;;;;;6142309;23;20004;-80
2022/06/15 02:35:07;;;;;;;6.18;3.50;;;;;;;;;;6198775;23;20368;-79
2022/06/15 02:37:34;;;;;;;8.52;3.90;;;;;;;;;;6216035;23;20000;-79
2022/06/15 02:40:00;;;;;;;10.63;3.92;;;;;;;;;;6188328;23;20436;-80
2022/06/15 02:42:33;;;;;;;7.38;4.05;;;;;;;;;;6214571;23;20126;-80
2022/06/15 02:45:28;;;;;;;7.78;3.60;;;;;;;;;;6214662;23;20011;-80
2022/06/15 02:47:54;;;;;;;10.18;3.50;;;;;;;;;;6209452;23;20077;-80
2022/06/15 02:50:20;;;;;;;11.35;3.50;;;;;;;;;;6187972;23;20004;-80
2022/06/15 02:52:59;;;;;;;7.18;4.00;;;;;;;;;;6189652;23;20023;-81
2022/06/15 02:55:25;;;;;;;8.88;4.13;;;;;;;;;;6174100;23;20498;-80
2022/06/15 02:58:08;;;;;;;8.13;3.75;;;;;;;;;;6188272;23;20067;-81
2022/06/15 03:00:33;;;;;;;8.35;3.95;;;;;;;;;;6214875;23;20424;-80
2022/06/15 03:02:59;;;;;;;7.53;4.03;;;;;;;;;;6214636;23;20023;-81
2022/06/15 03:05:24;;;;;;;7.30;4.05;;;;;;;;;;6214642;23;20005;-80
2022/06/15 03:07:50;;;;;;;10.65;4.60;;;;;;;;;;6214370;23;20003;-80
2022/06/15 03:10:15;;;;;;;11.23;4.18;;;;;;;;;;6163428;23;20016;-81
2022/06/15 03:12:41;;;;;;;9.07;4.50;;;;;;;;;;6216140;23;20079;-80
2022/06/15 03:15:07;;;;;;;8.45;4.75;;;;;;;;;;6224264;22;20004;-80
2022/06/15 03:17:32;;;;;;;9.85;4.68;;;;;;;;;;6214792;23;20402;-81
2022/06/15 03:19:58;;;;;;;7.35;4.97;;;;;;;;;;6245773;23;20454;-81
2022/06/15 03:22:23;;;;;;;5.75;4.18;;;;;;;;;;6244301;23;20000;-79
2022/06/15 03:24:48;;;;;;;9.07;4.85;;;;;;;;;;6244727;23;20031;-80
2022/06/15 03:27:14;;;;;;;12.55;5.50;;;;;;;;;;6244568;23;20001;-80
2022/06/15 03:29:40;;;;;;;10.20;4.80;;;;;;;;;;6217859;23;20027;-80
2022/06/15 03:32:06;;;;;;;19.23;5.88;;;;;;;;;;6244494;23;20316;-79
2022/06/15 03:34:31;;;;;;;9.05;5.38;;;;;;;;;;6257839;22;20007;-79
2022/06/15 03:36:57;;;;;;;11.35;5.53;;;;;;;;;;6245916;23;20005;-79
2022/06/15 03:39:22;;;;;;;10.63;5.30;;;;;;;;;;6244681;23;20380;-80
2022/06/15 03:41:48;;;;;;;11.73;6.03;;;;;;;;;;6245116;23;20012;-80
2022/06/15 03:44:13;;;;;;;13.63;6.65;;;;;;;;;;6244441;23;20335;-80
2022/06/15 03:46:39;;;;;;;12.07;6.78;;;;;;;;;;6244447;23;20000;-79
2022/06/15 03:49:05;;;;;;;13.07;7.43;;;;;;;;;;6244796;23;20034;-79
2022/06/15 03:51:30;;;;;;;13.73;7.70;;;;;;;;;;6244618;23;20006;-80
2022/06/15 03:53:57;;;;;;;10.20;7.38;;;;;;;;;;6252231;22;20020;-79
2022/06/15 03:56:23;;;;;;;12.90;7.28;;;;;;;;;;6257187;22;20012;-78
2022/06/15 03:58:48;;;;;;;10.40;7.00;;;;;;;;;;6244689;23;20438;-80
2022/06/15 04:01:14;;;;;;;11.98;7.18;;;;;;;;;;6218423;23;20011;-79
2022/06/15 04:03:39;;;;;;;15.82;6.97;;;;;;;;;;6244451;23;20000;-78
2022/06/15 04:06:05;;;;;;;16.30;8.55;;;;;;;;;;6243942;23;20755;-79
2022/06/15 04:08:37;;;;;;;10.57;7.20;;;;;;;;;;6217874;23;20003;-79
2022/06/15 04:11:04;;;;;;;9.57;6.85;;;;;;;;;;6244391;23;20004;-79
2022/06/15 04:13:30;;;;;;;11.35;6.82;;;;;;;;;;6217167;23;20015;-79
2022/06/15 04:15:55;;;;;;;13.07;7.25;;;;;;;;;;6259853;23;20075;-81
2022/06/15 04:18:21;;;;;;;11.95;6.70;;;;;;;;;;6245217;23;20007;-77
2022/06/15 04:20:46;;;;;;;10.48;6.82;;;;;;;;;;6217278;23;20011;-76
2022/06/15 04:23:13;;;;;;;9.27;6.95;;;;;;;;;;6244767;23;20010;-76
2022/06/15 04:25:51;;;;;;;13.57;6.70;;;;;;;;;;6243856;23;20004;-78
2022/06/15 04:28:17;;;;;;;11.60;6.82;;;;;;;;;;6243860;23;20038;-78
2022/06/15 04:30:42;;;;;;;14.50;7.13;;;;;;;;;;6243804;23;20439;-77
2022/06/15 04:33:09;;;;;;;14.00;6.68;;;;;;;;;;6243813;23;20093;-78
2022/06/15 04:35:35;;;;;;;8.93;6.57;;;;;;;;;;6252008;23;20064;-78
2022/06/15 04:38:00;;;;;;;11.70;6.70;;;;;;;;;;6246526;23;20004;-78
2022/06/15 04:40:26;;;;;;;12.43;7.38;;;;;;;;;;6244487;23;20442;-78
2022/06/15 04:42:51;;;;;;;9.70;6.50;;;;;;;;;;6219658;23;20008;-76
2022/06/15 04:45:17;;;;;;;9.00;6.82;;;;;;;;;;6216929;23;20008;-77
2022/06/15 04:47:43;;;;;;;9.45;6.88;;;;;;;;;;6243709;23;20004;-77
2022/06/15 04:50:10;;;;;;;12.75;6.75;;;;;;;;;;6242530;23;20006;-79
2022/06/15 04:52:35;;;;;;;10.30;6.80;;;;;;;;;;6243488;23;20658;-78
2022/06/15 04:55:04;;;;;;;9.93;6.88;;;;;;;;;;6216946;23;20004;-81
2022/06/15 04:57:39;;;;;;;11.73;7.07;;;;;;;;;;6253320;23;20016;-80
2022/06/15 05:00:11;;;;;;;10.27;6.90;;;;;;;;;;6243749;23;20392;-78
2022/06/15 05:02:36;;;;;;;10.65;7.03;;;;;;;;;;6218163;23;20074;-77
2022/06/15 05:05:02;;;;;;;12.23;6.22;;;;;;;;;;6215769;23;20000;-77
2022/06/15 05:07:27;;;;;;;13.50;6.63;;;;;;;;;;6217004;23;20012;-78
2022/06/15 05:09:53;;;;;;;10.88;6.45;;;;;;;;;;6215605;23;20079;-77
2022/06/15 05:12:18;;;;;;;15.90;6.78;;;;;;;;;;6243913;23;20004;-78
2022/06/15 05:14:47;;;;;;;10.63;6.25;;;;;;;;;;6245097;23;20019;-77
2022/06/15 05:17:20;;;;;;;8.43;6.43;;;;;;;;;;6205004;23;20371;-77
2022/06/15 05:19:46;;;;;;;22.10;13.55;;;;;;;;;;6244042;23;20073;-77
2022/06/15 05:22:12;;;;;;;23.67;12.43;;;;;;;;;;6215670;23;20078;-79
2022/06/15 05:24:38;;;;;;;16.58;9.65;;;;;;;;;;6214393;23;20000;-81
2022/06/15 05:27:04;;;;;;;19.85;10.88;;;;;;;;;;6249170;23;20083;-77
2022/06/15 05:29:30;;;;;;;15.25;7.32;;;;;;;;;;6214637;23;20008;-78
2022/06/15 05:31:56;;;;;;;17.10;7.68;;;;;;;;;;6214808;23;20011;-78
2022/06/15 05:34:22;;;;;;;13.70;6.32;;;;;;;;;;6215082;23;20000;-76
2022/06/15 05:36:48;;;;;;;10.18;7.15;;;;;;;;;;6252627;23;19988;-77
2022/06/15 05:39:13;;;;;;;10.35;6.75;;;;;;;;;;6219086;23;20027;-78
2022/06/15 05:41:39;;;;;;;11.55;6.10;;;;;;;;;;6245861;23;20004;-78
2022/06/15 05:46:39;;;;;;;8.13;5.78;;;;;;;;;;6244190;23;20036;-77
2022/06/15 05:49:05;;;;;;;9.82;5.13;;;;;;;;;;6220634;23;20007;-76
2022/06/15 05:51:30;;;;;;;9.57;5.38;;;;;;;;;;6215609;23;20096;-75
2022/06/15 05:53:56;;;;;;;9.73;5.53;;;;;;;;;;6241306;23;20001;-77
2022/06/15 05:56:22;;;;;;;15.73;7.75;;;;;;;;;;6249768;23;20004;-75
2022/06/15 05:58:47;;;;;;;7.40;4.97;;;;;;;;;;6221156;23;20010;-75
2022/06/15 06:01:20;;;;;;;18.92;8.32;;;;;;;;;;6216907;23;20011;-77
2022/06/15 06:03:48;;;;;;;16.45;7.35;;;;;;;;;;6216783;23;20008;-76
2022/06/15 06:06:13;;;;;;;18.27;7.95;;;;;;;;;;6243790;23;20383;-75
2022/06/15 06:08:40;;;;;;;10.88;5.18;;;;;;;;;;6191048;23;20091;-75
2022/06/15 06:11:05;;;;;;;14.98;6.72;;;;;;;;;;6243975;23;20031;-77
2022/06/15 06:13:31;;;;;;;10.27;6.88;;;;;;;;;;6243384;23;20012;-74
2022/06/15 06:15:56;;;;;;;10.77;5.22;;;;;;;;;;6242623;23;20450;-75
2022/06/15 06:18:23;;;;;;;12.27;4.53;;;;;;;;;;6222423;23;20008;-74
2022/06/15 06:20:52;;;;;;;9.52;5.00;;;;;;;;;;6247103;23;20141;-75
2022/06/15 06:23:17;;;;;;;8.53;5.00;;;;;;;;;;6244972;23;20095;-75
2022/06/15 06:25:43;;;;;;;10.50;7.05;;;;;;;;;;6220178;23;20019;-77
2022/06/15 06:28:21;;;;;;;30.05;17.80;;;;;;;;;;6188249;23;20004;-77
2022/06/15 06:30:46;;;;;;;8.55;5.55;;;;;;;;;;6215612;23;20011;-75
2022/06/15 06:33:12;;;;;;;8.93;5.57;;;;;;;;;;6244434;23;20008;-81
2022/06/15 06:35:37;;;;;;;13.27;5.18;;;;;;;;;;6216623;23;20054;-78
2022/06/15 06:38:03;;;;;;;8.38;5.20;;;;;;;;;;6248191;23;20000;-77
2022/06/15 06:40:28;;;;;;;9.77;4.85;;;;;;;;;;6215090;23;20012;-76
2022/06/15 06:42:54;;;;;;;9.75;5.15;;;;;;;;;;6216220;23;20008;-75
2022/06/15 06:45:20;;;;;;;16.52;5.28;;;;;;;;;;6237406;23;20011;-77
2022/06/15 06:47:46;;;;;;;27.50;5.35;;;;;;;;;;6239566;23;20008;-77
2022/06/15 06:50:14;;;;;;;7.70;5.00;;;;;;;;;;6204470;23;20086;-76
2022/06/15 06:52:42;;;;;;;10.43;5.50;;;;;;;;;;6240847;23;20191;-77
2022/06/15 06:55:08;;;;;;;8.98;5.70;;;;;;;;;;6242063;23;20000;-76
2022/06/15 06:57:34;;;;;;;8.95;5.63;;;;;;;;;;6215948;23;20424;-78
2022/06/15 07:00:00;;;;;;;10.45;5.00;;;;;;;;;;6240526;23;20000;-76
2022/06/15 07:02:25;;;;;;;7.10;5.05;;;;;;;;;;6240228;23;20054;-74
2022/06/15 07:04:51;;;;;;;10.38;7.35;;;;;;;;;;6238991;23;20061;-75
2022/06/15 07:07:16;;;;;;;7.32;5.10;;;;;;;;;;6212786;23;20378;-77
2022/06/15 07:09:42;;;;;;;9.15;5.30;;;;;;;;;;6190274;23;20588;-75
2022/06/15 07:12:08;;;;;;;6.00;5.13;;;;;;;;;;6240733;23;20011;-74
2022/06/15 07:14:33;;;;;;;10.15;5.50;;;;;;;;;;6239625;23;20001;-77
2022/06/15 07:16:59;;;;;;;8.27;4.93;;;;;;;;;;6217579;23;20012;-77
2022/06/15 07:19:25;;;;;;;9.15;5.85;;;;;;;;;;6189387;23;20004;-78
2022/06/15 07:21:50;;;;;;;11.48;5.25;;;;;;;;;;6239471;23;20078;-75
2022/06/15 07:24:16;;;;;;;13.00;7.50;;;;;;;;;;6242005;23;20000;-76
2022/06/15 07:26:43;;;;;;;7.47;5.43;;;;;;;;;;6188080;23;20104;-76
2022/06/15 07:29:11;;;;;;;7.22;5.40;;;;;;;;;;6213531;23;20000;-75
2022/06/15 07:31:38;;;;;;;16.80;9.45;;;;;;;;;;6191541;23;20008;-76
2022/06/15 07:34:09;;;;;;;20.70;12.23;;;;;;;;;;6244470;23;20344;-75
2022/06/15 07:36:35;;;;;;;10.52;5.88;;;;;;;;;;6190477;23;20191;-74
2022/06/15 07:39:01;;;;;;;20.38;11.30;;;;;;;;;;6220833;23;20000;-78
2022/06/15 07:41:27;;;;;;;9.57;5.50;;;;;;;;;;6243795;23;20012;-79
2022/06/15 07:43:53;;;;;;;5.88;4.40;;;;;;;;;;6217480;23;20000;-76
2022/06/15 07:46:18;;;;;;;8.40;5.78;;;;;;;;;;6239418;23;20058;-75
2022/06/15 07:51:35;;;;;;;13.88;6.47;;;;;;;;;;6241338;23;20015;-75
2022/06/15 07:54:02;;;;;;;5.93;4.78;;;;;;;;;;6214222;23;20008;-79
2022/06/15 07:56:28;;;;;;;9.75;5.22;;;;;;;;;;6238306;23;20008;-77
2022/06/15 07:58:54;;;;;;;7.30;5.05;;;;;;;;;;6221846;23;20008;-75
2022/06/15 08:01:19;;;;;;;8.43;5.80;;;;;;;;;;6214289;23;20008;-78
2022/06/15 08:03:46;;;;;;;9.93;5.35;;;;;;;;;;6242912;23;20008;-79
2022/06/15 08:06:11;;;;;;;7.00;5.43;;;;;;;;;;6241814;23;20046;-76
2022/06/15 08:08:37;;;;;;;15.50;8.05;;;;;;;;;;6210279;23;20031;-78
2022/06/15 08:11:02;;;;;;;8.32;5.70;;;;;;;;;;6241209;23;20004;-76
2022/06/15 08:13:28;;;;;;;9.23;5.20;;;;;;;;;;6239148;23;20031;-76
2022/06/15 08:15:53;;;;;;;11.23;5.75;;;;;;;;;;6240270;23;20008;-77
2022/06/15 08:18:25;;;;;;;14.52;6.25;;;;;;;;;;6218819;23;20039;-77
2022/06/15 08:20:56;;;;;;;8.93;5.90;;;;;;;;;;6219448;23;20000;-76
2022/06/15 08:23:23;;;;;;;9.02;5.47;;;;;;;;;;6240313;23;20442;-78
2022/06/15 08:25:53;;;;;;;10.95;6.90;;;;;;;;;;6237866;23;20001;-76
2022/06/15 08:28:20;;;;;;;11.50;6.53;;;;;;;;;;6210155;23;20012;-76
2022/06/15 08:30:46;;;;;;;8.55;5.93;;;;;;;;;;6186184;23;20011;-75
2022/06/15 08:33:12;;;;;;;9.05;6.38;;;;;;;;;;6240250;23;20011;-78
2022/06/15 08:35:38;;;;;;;10.63;5.40;;;;;;;;;;6242373;23;20000;-76
2022/06/15 08:38:09;;;;;;;9.48;6.00;;;;;;;;;;6244426;23;20016;-77
2022/06/15 08:40:41;;;;;;;9.18;5.00;;;;;;;;;;6245211;23;19996;-77
2022/06/15 08:43:10;;;;;;;6.47;5.15;;;;;;;;;;6190642;23;20008;-76
2022/06/15 08:45:47;;;;;;;8.98;5.30;;;;;;;;;;6214353;23;20007;-76
2022/06/15 08:48:24;;;;;;;28.55;17.63;;;;;;;;;;6216756;23;20005;-78
2022/06/15 08:51:18;;;;;;;6.90;5.68;;;;;;;;;;6215832;23;20479;-76
2022/06/15 08:53:43;;;;;;;6.38;5.10;;;;;;;;;;6243033;23;20004;-75
2022/06/15 08:56:31;;;;;;;11.95;7.47;;;;;;;;;;6215429;23;20014;-74
2022/06/15 08:59:06;;;;;;;6.95;5.30;;;;;;;;;;6221192;23;20006;-75
2022/06/15 09:01:55;;;;;;;9.77;5.40;;;;;;;;;;6222253;23;20070;-76
2022/06/15 09:04:52;;;;;;;10.75;6.47;;;;;;;;;;6222959;23;20005;-76
2022/06/15 09:07:57;;;;;;;10.50;6.03;;;;;;;;;;6218891;23;20081;-77
2022/06/15 09:11:07;;;;;;;8.75;5.32;;;;;;;;;;6187427;23;20009;-76
2022/06/15 09:13:41;;;;;;;6.30;4.68;;;;;;;;;;6182309;23;20006;-77
2022/06/15 09:16:07;;;;;;;8.25;4.85;;;;;;;;;;6244125;23;20038;-76
2022/06/15 09:18:46;;;;;;;9.23;5.22;;;;;;;;;;6244524;23;20001;-76
2022/06/15 09:21:33;;;;;;;8.70;4.43;;;;;;;;;;6249702;23;20010;-76
2022/06/15 09:24:07;;;;;;;8.88;5.75;;;;;;;;;;6217943;23;20427;-76
2022/06/15 09:26:43;;;;;;;7.45;4.80;;;;;;;;;;6217303;23;20408;-76
2022/06/15 09:29:13;;;;;;;6.40;5.47;;;;;;;;;;6217272;23;20000;-74
2022/06/15 09:31:49;;;;;;;7.13;4.20;;;;;;;;;;6243435;23;20004;-76
2022/06/15 09:34:19;;;;;;;5.97;4.70;;;;;;;;;;6217604;23;20007;-76
2022/06/15 09:36:52;;;;;;;11.43;6.65;;;;;;;;;;6194345;23;20027;-76
2022/06/15 09:39:18;;;;;;;8.15;5.22;;;;;;;;;;6246879;23;20000;-74
2022/06/15 09:42:07;;;;;;;9.82;5.90;;;;;;;;;;6250763;23;20003;-76
2022/06/15 09:45:03;;;;;;;7.47;5.43;;;;;;;;;;6241385;23;20414;-77
2022/06/15 09:48:16;;;;;;;8.65;4.07;;;;;;;;;;6243496;23;20098;-76
2022/06/15 09:50:56;;;;;;;7.93;5.80;;;;;;;;;;6160347;23;20407;-76
2022/06/15 09:53:41;;;;;;;9.68;4.50;;;;;;;;;;6193919;23;20011;-75
2022/06/15 09:56:09;;;;;;;7.47;4.25;;;;;;;;;;6218314;23;20458;-76
2022/06/15 09:58:54;;;;;;;16.92;9.70;;;;;;;;;;6218396;23;20336;-75
2022/06/15 10:01:20;;;;;;;10.82;5.60;;;;;;;;;;6224389;23;20011;-75
2022/06/15 10:03:49;;;;;;;6.50;4.10;;;;;;;;;;6216264;23;20068;-76
2022/06/15 10:06:32;;;;;;;5.72;4.10;;;;;;;;;;6243003;23;20477;-74
2022/06/15 10:08:58;;;;;;;11.05;4.70;;;;;;;;;;6216818;23;20009;-74
2022/06/15 10:11:42;;;;;;;9.38;4.93;;;;;;;;;;6216736;23;20031;-76
2022/06/15 10:14:25;;;;;;;7.72;4.45;;;;;;;;;;6192940;23;20000;-75
2022/06/15 10:17:02;;;;;;;7.07;4.50;;;;;;;;;;6243932;23;20019;-76
2022/06/15 10:19:31;;;;;;;7.28;4.22;;;;;;;;;;6222031;23;20079;-75
2022/06/15 10:21:58;;;;;;;5.43;4.47;;;;;;;;;;6222035;23;20431;-76
2022/06/15 10:24:27;;;;;;;6.68;4.30;;;;;;;;;;6217779;23;19996;-74
2022/06/15 10:27:22;;;;;;;7.75;3.92;;;;;;;;;;6193374;23;20336;-76
2022/06/15 10:30:10;;;;;;;8.20;5.03;;;;;;;;;;6245095;23;20023;-75
2022/06/15 10:32:39;;;;;;;5.75;4.30;;;;;;;;;;6224940;23;20001;-77
2022/06/15 10:35:15;;;;;;;8.60;4.43;;;;;;;;;;6217955;23;19996;-77
2022/06/15 10:37:52;;;;;;;6.47;4.53;;;;;;;;;;6216842;23;20447;-78
2022/06/15 10:40:24;;;;;;;6.47;4.50;;;;;;;;;;6220980;23;20035;-75
2022/06/15 10:42:53;;;;;;;7.07;4.47;;;;;;;;;;6250284;23;20077;-77
2022/06/15 10:45:33;;;;;;;9.00;4.32;;;;;;;;;;6194637;23;20095;-78
2022/06/15 10:48:18;;;;;;;6.53;4.65;;;;;;;;;;6244742;23;20412;-77
2022/06/15 10:51:02;;;;;;;6.95;4.15;;;;;;;;;;6244925;23;20022;-76
2022/06/15 10:53:39;;;;;;;4.43;4.00;;;;;;;;;;6243870;23;20032;-76
2022/06/15 11:02:07;;;;;;;8.60;4.50;;;;;;;;;;6231913;23;20033;-75
2022/06/15 11:04:54;;;;;;;5.82;4.22;;;;;;;;;;6200853;23;20049;-76
2022/06/15 11:07:23;;;;;;;6.03;4.45;;;;;;;;;;6243412;23;20008;-77
2022/06/15 11:10:11;;;;;;;8.90;4.55;;;;;;;;;;6244723;23;20432;-76
2022/06/15 11:12:42;;;;;;;6.32;4.60;;;;;;;;;;6244649;23;20137;-76
2022/06/15 11:15:13;;;;;;;21.63;12.98;;;;;;;;;;6218365;23;19996;-78
2022/06/15 11:18:01;;;;;;;12.10;7.70;;;;;;;;;;6244557;23;20058;-77
2022/06/15 11:20:43;;;;;;;10.38;4.90;;;;;;;;;;6218025;23;20008;-78
2022/06/15 11:23:17;;;;;;;7.55;5.28;;;;;;;;;;6224941;23;20081;-77
2022/06/15 11:25:49;;;;;;;11.40;5.15;;;;;;;;;;6217171;23;20008;-77
2022/06/15 11:28:19;;;;;;;12.77;6.82;;;;;;;;;;6219371;23;20133;-76
2022/06/15 11:30:58;;;;;;;7.72;4.95;;;;;;;;;;6216530;23;20099;-78
2022/06/15 11:33:45;;;;;;;10.18;7.60;;;;;;;;;;6218008;23;19996;-77
2022/06/15 11:36:52;;;;;;;6.68;5.97;;;;;;;;;;6244110;23;19996;-77
2022/06/15 11:39:17;;;;;;;8.73;6.40;;;;;;;;;;6223937;23;20011;-77
2022/06/15 11:41:50;;;;;;;9.00;5.22;;;;;;;;;;6246609;23;20063;-78
2022/06/15 11:44:22;;;;;;;7.65;5.50;;;;;;;;;;6223132;23;20007;-78
2022/06/15 11:47:30;;;;;;;13.38;5.93;;;;;;;;;;6215480;23;20356;-77
2022/06/15 11:50:01;;;;;;;6.85;5.15;;;;;;;;;;6188365;23;20086;-76
2022/06/15 11:52:42;;;;;;;11.55;4.75;;;;;;;;;;6242859;23;20012;-77
2022/06/15 11:55:22;;;;;;;7.75;4.75;;;;;;;;;;6216390;23;20439;-77
2022/06/15 11:58:26;;;;;;;9.25;5.00;;;;;;;;;;6193526;23;20092;-77
2022/06/15 12:01:16;;;;;;;8.00;4.97;;;;;;;;;;6095831;23;20093;-75
2022/06/15 12:04:10;;;;;;;11.88;5.00;;;;;;;;;;6092073;23;20010;-76
2022/06/15 12:06:56;;;;;;;9.15;5.90;;;;;;;;;;6216678;23;20092;-77
2022/06/15 12:09:24;;;;;;;13.32;8.43;;;;;;;;;;6218579;23;20008;-78
2022/06/15 12:14:55;;;;;;;10.50;6.63;;;;;;;;;;6200756;23;20042;-78
2022/06/15 12:17:41;;;;;;;;;;;;;;;;;;6192239;23;20012;-78
2022/06/15 12:20:30;;;;;;;6.03;5.43;;;;;;;;;;6218807;23;19931;-77
2022/06/15 12:23:16;;;;;;;11.63;6.30;;;;;;;;;;6246224;23;20012;-77
2022/06/15 12:26:02;;;;;;;6.65;5.55;;;;;;;;;;6220384;23;20407;-78
2022/06/15 12:28:32;;;;;;;8.00;5.20;;;;;;;;;;6192742;23;20004;-78
2022/06/15 12:31:07;;;;;;;7.03;4.82;;;;;;;;;;6218167;23;20483;-77
2022/06/15 12:33:51;;;;;;;14.77;4.68;;;;;;;;;;6243373;23;20000;-76
2022/06/15 12:36:20;;;;;;;11.00;6.90;;;;;;;;;;6243554;23;20427;-76
2022/06/15 12:39:10;;;;;;;8.50;6.53;;;;;;;;;;6217118;23;20000;-77
2022/06/15 12:44:28;;;;;;;12.07;6.70;;;;;;;;;;6221334;23;19914;-77
2022/06/15 12:46:53;;;;;;;8.05;5.32;;;;;;;;;;6218883;23;20022;-77
2022/06/15 12:49:23;;;;;;;7.53;4.75;;;;;;;;;;6191612;23;20008;-76
2022/06/15 12:51:55;;;;;;;6.60;5.22;;;;;;;;;;6217334;23;20042;-77
2022/06/15 12:54:34;;;;;;;18.27;9.70;;;;;;;;;;6217991;23;20004;-77
2022/06/15 12:57:36;;;;;;;23.23;13.30;;;;;;;;;;6217625;23;20088;-77
2022/06/15 13:00:20;;;;;;;8.90;6.50;;;;;;;;;;6244426;23;20004;-77
2022/06/15 13:02:52;;;;;;;8.75;5.20;;;;;;;;;;6249807;23;20012;-78
2022/06/15 13:05:31;;;;;;;13.77;6.70;;;;;;;;;;6243947;23;20062;-76
2022/06/15 13:08:11;;;;;;;7.85;5.22;;;;;;;;;;6192318;23;20004;-77
2022/06/15 13:10:56;;;;;;;11.75;8.18;;;;;;;;;;6243974;23;20011;-79
2022/06/15 13:13:27;;;;;;;9.20;6.57;;;;;;;;;;6243537;23;20067;-78
2022/06/15 13:15:55;;;;;;;7.85;5.53;;;;;;;;;;6216609;23;20044;-77
2022/06/15 13:18:48;;;;;;;39.22;20.90;;;;;;;;;;6219161;23;20131;-76
2022/06/15 13:21:16;;;;;;;18.35;11.65;;;;;;;;;;6229991;23;20052;-76
2022/06/15 13:23:44;;;;;;;5.38;4.45;;;;;;;;;;6194491;23;20004;-77
2022/06/15 13:26:16;;;;;;;13.15;6.50;;;;;;;;;;6193520;23;20068;-77
2022/06/15 13:28:45;;;;;;;13.55;8.77;;;;;;;;;;6245583;23;19992;-77
2022/06/15 13:31:14;;;;;;;23.27;14.75;;;;;;;;;;6219288;23;20031;-78
2022/06/15 13:33:45;;;;;;;12.65;8.13;;;;;;;;;;6217558;23;20447;-78
2022/06/15 13:36:11;;;;;;;12.60;8.88;;;;;;;;;;6245175;23;20004;-78
2022/06/15 13:38:37;;;;;;;16.25;8.50;;;;;;;;;;6245607;23;20435;-77
2022/06/15 13:41:06;;;;;;;12.05;7.40;;;;;;;;;;6245402;23;20000;-76
2022/06/15 13:43:51;;;;;;;7.13;5.10;;;;;;;;;;6251635;23;20012;-76
2022/06/15 13:46:29;;;;;;;17.65;9.65;;;;;;;;;;6244747;23;20446;-76
2022/06/15 13:49:00;;;;;;;12.57;6.63;;;;;;;;;;6245091;23;20008;-76
2022/06/15 13:51:30;;;;;;;18.10;11.75;;;;;;;;;;6245217;23;20004;-76
2022/06/15 13:54:02;;;;;;;22.15;14.38;;;;;;;;;;6218389;23;20440;-77
2022/06/15 13:56:36;;;;;;;11.52;7.28;;;;;;;;;;6245078;23;20015;-76
2022/06/15 13:59:16;;;;;;;7.82;4.80;;;;;;;;;;6245454;23;20087;-76
2022/06/15 14:02:03;;;;;;;5.00;4.50;;;;;;;;;;6245318;23;20389;-76
2022/06/15 14:04:34;;;;;;;9.70;6.00;;;;;;;;;;6247847;23;20012;-77
2022/06/15 14:07:06;;;;;;;8.10;5.43;;;;;;;;;;6245412;23;20000;-77
2022/06/15 14:09:55;;;;;;;14.57;8.25;;;;;;;;;;6244906;23;20004;-74
2022/06/15 14:12:27;;;;;;;7.28;4.75;;;;;;;;;;6201999;23;20011;-76
2022/06/15 14:15:05;;;;;;;6.93;4.18;;;;;;;;;;6244909;23;20451;-80
2022/06/15 14:17:49;;;;;;;6.03;4.35;;;;;;;;;;6245083;23;21135;-81
2022/06/15 14:20:26;;;;;;;8.65;4.88;;;;;;;;;;6218241;23;20380;-80
2022/06/15 14:22:59;;;;;;;5.63;4.55;;;;;;;;;;6202837;23;20027;-79
2022/06/15 14:25:25;;;;;;;6.88;4.50;;;;;;;;;;6224362;23;20012;-81
2022/06/15 14:27:56;;;;;;;6.88;4.60;;;;;;;;;;6218788;23;20048;-82
2022/06/15 14:30:25;;;;;;;8.32;4.47;;;;;;;;;;6217788;23;20023;-79
2022/06/15 14:32:59;;;;;;;6.43;4.75;;;;;;;;;;6218452;23;20007;-80
2022/06/15 14:35:24;;;;;;;10.73;4.97;;;;;;;;;;6244880;23;20062;-81
2022/06/15 14:37:54;;;;;;;8.90;5.10;;;;;;;;;;6244807;23;19996;-81
2022/06/15 14:40:37;;;;;;;6.28;4.80;;;;;;;;;;6218968;23;20080;-82
2022/06/15 14:43:07;;;;;;;5.75;4.45;;;;;;;;;;6251191;22;20004;-80
2022/06/15 14:45:37;;;;;;;10.18;4.80;;;;;;;;;;6224467;23;20011;-81
2022/06/15 14:48:06;;;;;;;7.60;4.93;;;;;;;;;;6244978;23;20004;-80
2022/06/15 14:50:33;;;;;;;8.43;4.35;;;;;;;;;;6217786;23;20398;-79
2022/06/15 14:53:13;;;;;;;5.40;4.55;;;;;;;;;;6195559;23;20004;-80
2022/06/15 14:55:39;;;;;;;6.65;4.55;;;;;;;;;;6249824;23;20000;-80
2022/06/15 14:58:13;;;;;;;7.30;4.47;;;;;;;;;;6243883;23;20004;-80
2022/06/15 15:00:39;;;;;;;7.20;4.88;;;;;;;;;;6243322;23;20004;-80
2022/06/15 15:03:05;;;;;;;11.07;4.50;;;;;;;;;;6250643;23;20055;-82
2022/06/15 15:05:33;;;;;;;5.32;4.57;;;;;;;;;;6205394;23;20011;-80
2022/06/15 15:08:33;;;;;;;8.73;4.63;;;;;;;;;;6193716;23;20039;-80
2022/06/15 15:11:06;;;;;;;12.02;4.93;;;;;;;;;;6243607;23;20004;-82
2022/06/15 15:13:38;;;;;;;6.43;4.75;;;;;;;;;;6242980;23;20000;-81
2022/06/15 15:16:07;;;;;;;8.88;5.28;;;;;;;;;;6243104;23;20004;-79
2022/06/15 15:18:41;;;;;;;8.88;4.70;;;;;;;;;;6243404;23;20428;-80
2022/06/15 15:21:33;;;;;;;6.78;4.70;;;;;;;;;;6243619;23;20034;-80
2022/06/15 15:24:13;;;;;;;6.68;4.80;;;;;;;;;;6198228;23;20012;-80